Time;durP1;ratioP1;P1;durP2;ratioP2;P2;SDS_P1;SDS_P2;PMS_P1;PMS_P2;Temp;Humidity;BMP_temperature;BMP_pressure;BME280_temperature;BME280_humidity;BME280_pressure;Samples;Min_cycle;Max_cycle;Signal;HPM_P1;HPM_P2
2022/03/16 00:00:27;;;;;;;0.47;0.47;;;12.40;99.90;;;;;;5053351;28;20487;-74
2022/03/16 00:02:53;;;;;;;0.55;0.55;;;12.40;99.90;;;;;;5053652;28;20094;-74
2022/03/16 00:05:19;;;;;;;0.25;0.20;;;12.40;99.90;;;;;;5053886;28;20495;-74
2022/03/16 00:07:45;;;;;;;0.55;0.55;;;12.40;99.90;;;;;;5053688;28;20499;-75
2022/03/16 00:10:13;;;;;;;0.30;0.30;;;12.50;99.90;;;;;;5051856;28;20024;-74
2022/03/16 00:12:40;;;;;;;0.28;0.28;;;12.50;99.90;;;;;;5053188;28;20017;-74
2022/03/16 00:15:06;;;;;;;2.63;1.45;;;12.40;99.90;;;;;;5053371;28;20021;-75
2022/03/16 00:17:32;;;;;;;0.10;0.10;;;12.40;99.90;;;;;;5052904;28;20021;-74
2022/03/16 00:19:58;;;;;;;0.03;0.03;;;12.50;99.90;;;;;;5053505;28;20404;-75
2022/03/16 00:22:24;;;;;;;1.75;0.60;;;12.50;99.90;;;;;;5052929;28;20031;-73
2022/03/16 00:24:49;;;;;;;0.80;0.80;;;12.40;99.90;;;;;;5051767;28;20045;-74
2022/03/16 00:27:15;;;;;;;0.20;0.20;;;12.40;99.90;;;;;;5032597;28;20503;-74
2022/03/16 00:29:41;;;;;;;0.88;0.82;;;12.30;99.90;;;;;;5033480;28;20025;-75
2022/03/16 00:32:07;;;;;;;0.60;0.60;;;12.40;99.90;;;;;;5033328;28;20053;-75
2022/03/16 00:34:33;;;;;;;0.22;0.22;;;12.30;99.90;;;;;;5033544;28;20033;-74
2022/03/16 00:36:59;;;;;;;2.75;1.38;;;12.30;99.90;;;;;;5039174;28;20032;-74
2022/03/16 00:39:24;;;;;;;0.10;0.10;;;12.30;99.90;;;;;;5053182;28;20521;-75
2022/03/16 00:41:50;;;;;;;1.40;0.52;;;12.30;99.90;;;;;;5052997;28;20076;-74
2022/03/16 00:44:16;;;;;;;0.00;0.00;;;12.30;99.90;;;;;;5052942;28;20029;-75
2022/03/16 00:46:42;;;;;;;0.17;0.17;;;12.30;99.90;;;;;;5053046;28;20031;-74
2022/03/16 00:49:07;;;;;;;0.10;0.10;;;12.30;99.90;;;;;;5052909;28;20021;-74
2022/03/16 00:51:33;;;;;;;0.30;0.30;;;12.30;99.90;;;;;;5053093;28;20456;-74
2022/03/16 00:54:00;;;;;;;0.30;0.30;;;12.30;99.90;;;;;;5052733;28;20026;-74
2022/03/16 00:56:26;;;;;;;0.30;0.30;;;12.30;99.90;;;;;;5052923;28;20484;-74
2022/03/16 00:58:51;;;;;;;0.50;0.15;;;12.30;99.90;;;;;;5052297;28;20121;-74
2022/03/16 01:01:17;;;;;;;0.75;0.57;;;12.30;99.90;;;;;;5052964;28;20069;-74
2022/03/16 01:03:43;;;;;;;0.45;0.35;;;12.30;99.90;;;;;;5052865;28;20061;-74
2022/03/16 01:06:15;;;;;;;3.53;0.57;;;12.20;99.90;;;;;;5052985;28;20074;-74
2022/03/16 01:08:44;;;;;;;0.00;0.00;;;12.30;99.90;;;;;;5052601;28;20025;-74
2022/03/16 01:11:13;;;;;;;0.17;0.17;;;12.30;99.90;;;;;;5052889;28;20029;-74
2022/03/16 01:13:40;;;;;;;2.03;1.33;;;12.30;99.90;;;;;;5052175;28;20025;-74
2022/03/16 01:16:06;;;;;;;2.00;1.08;;;12.30;99.90;;;;;;5052734;28;20084;-74
2022/03/16 01:18:31;;;;;;;1.67;0.65;;;12.30;99.90;;;;;;5052125;28;20428;-74
2022/03/16 01:21:00;;;;;;;0.20;0.20;;;12.30;99.90;;;;;;5056281;28;20454;-74
2022/03/16 01:23:26;;;;;;;0.10;0.10;;;12.20;99.90;;;;;;5057256;28;20396;-74
2022/03/16 01:25:52;;;;;;;0.40;0.40;;;12.20;99.90;;;;;;5056375;28;20021;-75
2022/03/16 01:28:17;;;;;;;1.20;0.55;;;12.20;99.90;;;;;;5056128;28;20484;-75
2022/03/16 01:30:43;;;;;;;0.10;0.10;;;12.20;99.90;;;;;;5056130;28;20502;-74
2022/03/16 01:33:09;;;;;;;0.10;0.10;;;12.20;99.90;;;;;;5055829;28;20048;-75
2022/03/16 01:35:34;;;;;;;0.30;0.30;;;12.20;99.90;;;;;;5056856;28;20028;-74
2022/03/16 01:38:00;;;;;;;1.35;0.85;;;12.20;99.90;;;;;;5056271;28;20057;-74
2022/03/16 01:40:26;;;;;;;0.00;0.00;;;12.20;99.90;;;;;;5055439;28;20032;-74
2022/03/16 01:42:52;;;;;;;18.55;1.67;;;12.20;99.90;;;;;;5056185;28;20067;-75
2022/03/16 01:45:17;;;;;;;1.88;1.45;;;12.20;99.90;;;;;;5056635;28;20040;-74
2022/03/16 01:47:43;;;;;;;0.28;0.28;;;12.10;99.90;;;;;;5054938;28;20082;-75
2022/03/16 01:50:09;;;;;;;0.10;0.10;;;12.10;99.90;;;;;;5049810;28;20028;-74
2022/03/16 01:52:36;;;;;;;0.10;0.10;;;12.20;99.90;;;;;;5054551;28;20029;-74
2022/03/16 01:55:05;;;;;;;1.77;1.20;;;12.10;99.90;;;;;;5056031;28;20139;-74
2022/03/16 01:57:35;;;;;;;1.02;0.40;;;12.20;99.90;;;;;;5056506;28;20025;-75
2022/03/16 02:00:06;;;;;;;1.17;0.90;;;12.20;99.90;;;;;;5055992;28;20061;-74
2022/03/16 02:02:33;;;;;;;0.10;0.10;;;12.20;99.90;;;;;;5055601;28;20025;-74
2022/03/16 02:04:58;;;;;;;0.00;0.00;;;12.10;99.90;;;;;;5055975;28;20483;-75
2022/03/16 02:07:24;;;;;;;1.67;0.82;;;12.10;99.90;;;;;;5055262;28;20036;-75
2022/03/16 02:09:52;;;;;;;1.85;0.47;;;12.10;99.90;;;;;;5055784;28;20029;-74
2022/03/16 02:12:17;;;;;;;0.13;0.13;;;12.10;99.90;;;;;;5055531;28;20017;-74
2022/03/16 02:14:43;;;;;;;0.60;0.10;;;12.10;99.90;;;;;;5055458;28;20096;-74
2022/03/16 02:17:09;;;;;;;0.03;0.03;;;12.10;99.90;;;;;;5055400;28;20032;-74
2022/03/16 02:19:35;;;;;;;0.43;0.25;;;12.10;99.90;;;;;;5055506;28;20021;-74
2022/03/16 02:22:03;;;;;;;0.00;0.00;;;12.00;99.90;;;;;;5055868;28;20099;-74
2022/03/16 02:24:29;;;;;;;0.63;0.63;;;12.00;99.90;;;;;;5055365;28;20028;-75
2022/03/16 02:26:56;;;;;;;1.30;0.50;;;12.00;99.90;;;;;;5054991;28;20538;-75
2022/03/16 02:29:22;;;;;;;0.10;0.10;;;12.00;99.90;;;;;;5054056;28;20021;-74
2022/03/16 02:31:50;;;;;;;0.70;0.63;;;12.00;99.90;;;;;;5054943;28;20052;-74
2022/03/16 02:34:16;;;;;;;0.75;0.60;;;12.00;99.90;;;;;;5055567;28;20040;-75
2022/03/16 02:36:42;;;;;;;0.00;0.00;;;12.00;99.90;;;;;;5055072;28;20392;-75
2022/03/16 02:39:08;;;;;;;7.57;1.10;;;12.00;99.90;;;;;;5055437;28;20025;-74
2022/03/16 02:41:33;;;;;;;0.35;0.35;;;12.00;99.90;;;;;;5055770;28;20021;-74
2022/03/16 02:43:59;;;;;;;0.28;0.28;;;12.00;99.90;;;;;;5054553;28;20044;-74
2022/03/16 02:46:25;;;;;;;5.72;1.55;;;11.90;99.90;;;;;;5054827;28;20105;-74
2022/03/16 02:48:51;;;;;;;0.70;0.70;;;11.90;99.90;;;;;;5055128;28;20021;-74
2022/03/16 02:51:16;;;;;;;2.53;0.52;;;11.90;99.90;;;;;;5048179;28;20434;-74
2022/03/16 02:53:42;;;;;;;0.52;0.52;;;11.90;99.90;;;;;;5054868;28;20392;-74
2022/03/16 02:56:07;;;;;;;0.10;0.10;;;11.90;99.90;;;;;;5054934;28;20090;-75
2022/03/16 02:58:33;;;;;;;0.10;0.10;;;11.90;99.90;;;;;;5055090;28;20039;-74
2022/03/16 03:00:59;;;;;;;0.38;0.38;;;11.90;99.90;;;;;;5054274;28;20451;-75
2022/03/16 03:03:25;;;;;;;0.20;0.20;;;11.80;99.90;;;;;;5054622;28;20029;-74
2022/03/16 03:05:53;;;;;;;0.50;0.20;;;11.80;99.90;;;;;;5055292;28;20075;-74
2022/03/16 03:08:19;;;;;;;0.00;0.00;;;11.80;99.90;;;;;;5054425;28;20075;-75
2022/03/16 03:10:45;;;;;;;0.30;0.30;;;11.80;99.90;;;;;;5054426;28;20029;-75
2022/03/16 03:13:11;;;;;;;0.20;0.20;;;11.80;99.90;;;;;;5054386;28;20033;-75
2022/03/16 03:15:38;;;;;;;5.88;1.27;;;11.80;99.90;;;;;;5054747;28;20024;-75
2022/03/16 03:18:03;;;;;;;0.55;0.55;;;11.80;99.90;;;;;;5053580;28;20033;-74
2022/03/16 03:20:29;;;;;;;0.35;0.35;;;11.80;99.90;;;;;;5054214;28;20147;-74
2022/03/16 03:22:55;;;;;;;0.73;0.73;;;11.70;99.90;;;;;;5054899;28;20025;-74
2022/03/16 03:25:21;;;;;;;0.75;0.73;;;11.80;99.90;;;;;;5054043;28;20029;-74
2022/03/16 03:27:46;;;;;;;0.47;0.47;;;11.80;99.90;;;;;;5053636;28;20108;-74
2022/03/16 03:30:12;;;;;;;0.10;0.10;;;11.80;99.90;;;;;;5054067;28;20025;-74
2022/03/16 03:32:38;;;;;;;2.45;0.80;;;11.80;99.90;;;;;;5054004;28;20049;-74
2022/03/16 03:35:04;;;;;;;1.02;0.52;;;11.80;99.90;;;;;;5054728;28;20391;-74
2022/03/16 03:37:30;;;;;;;0.00;0.00;;;11.90;99.90;;;;;;5054050;28;20051;-74
2022/03/16 03:39:56;;;;;;;0.43;0.20;;;11.90;99.90;;;;;;5053951;28;20025;-74
2022/03/16 03:42:22;;;;;;;0.65;0.47;;;11.90;99.90;;;;;;5053227;28;20446;-74
2022/03/16 03:44:48;;;;;;;0.43;0.43;;;11.90;99.90;;;;;;5053774;28;20074;-74
2022/03/16 03:47:14;;;;;;;0.05;0.05;;;11.90;99.90;;;;;;5054163;28;20053;-74
2022/03/16 03:49:41;;;;;;;1.85;1.23;;;11.90;99.90;;;;;;5049050;28;20029;-74
2022/03/16 03:52:07;;;;;;;1.45;0.47;;;11.90;99.90;;;;;;5052226;28;20097;-74
2022/03/16 03:54:33;;;;;;;0.38;0.30;;;11.90;99.90;;;;;;5053062;28;20021;-74
2022/03/16 03:57:00;;;;;;;0.03;0.03;;;11.90;99.90;;;;;;5053957;28;20078;-75
2022/03/16 03:59:25;;;;;;;0.85;0.45;;;11.90;99.90;;;;;;5053797;28;20040;-74
2022/03/16 04:01:51;;;;;;;4.07;1.65;;;11.90;99.90;;;;;;5053122;28;20024;-74
2022/03/16 04:04:17;;;;;;;0.30;0.30;;;11.90;99.90;;;;;;5053771;28;20032;-74
2022/03/16 04:06:43;;;;;;;3.13;0.65;;;11.90;99.90;;;;;;5053743;28;20025;-75
2022/03/16 04:09:09;;;;;;;1.25;0.38;;;12.00;99.90;;;;;;5053293;28;20431;-74
2022/03/16 04:11:35;;;;;;;0.43;0.43;;;11.90;99.90;;;;;;5054073;28;20477;-74
2022/03/16 04:14:02;;;;;;;49.17;2.38;;;11.90;99.90;;;;;;5052871;28;20442;-74
2022/03/16 04:16:27;;;;;;;0.63;0.57;;;11.90;99.90;;;;;;5053227;28;20017;-74
2022/03/16 04:18:54;;;;;;;0.47;0.47;;;11.90;99.90;;;;;;5052824;28;20024;-74
2022/03/16 04:21:20;;;;;;;1.85;1.35;;;11.90;99.90;;;;;;5053473;28;20486;-74
2022/03/16 04:23:46;;;;;;;0.95;0.40;;;11.80;99.90;;;;;;5053467;28;20022;-75
2022/03/16 04:26:12;;;;;;;0.52;0.52;;;11.90;99.90;;;;;;5043590;28;20097;-74
2022/03/16 04:28:37;;;;;;;1.55;0.52;;;11.80;99.90;;;;;;5031536;28;20718;-74
2022/03/16 04:31:03;;;;;;;0.10;0.10;;;11.80;99.90;;;;;;5034329;28;20508;-74
2022/03/16 04:33:29;;;;;;;2.63;1.35;;;11.80;99.90;;;;;;5033178;28;20034;-74
2022/03/16 04:35:55;;;;;;;0.57;0.57;;;11.80;99.90;;;;;;5033656;28;20140;-74
2022/03/16 04:38:21;;;;;;;0.10;0.10;;;11.90;99.90;;;;;;5049744;28;20052;-74
2022/03/16 04:40:47;;;;;;;7.88;4.35;;;11.90;99.90;;;;;;5052988;28;20100;-74
2022/03/16 04:43:13;;;;;;;2.70;0.98;;;11.90;99.90;;;;;;5053004;28;20045;-73
2022/03/16 04:45:39;;;;;;;0.00;0.00;;;11.90;99.90;;;;;;5053022;28;20433;-75
2022/03/16 04:48:09;;;;;;;0.15;0.15;;;12.00;99.90;;;;;;5053240;28;20388;-74
2022/03/16 04:50:35;;;;;;;0.22;0.22;;;12.00;99.90;;;;;;5045952;28;20511;-75
2022/03/16 04:53:02;;;;;;;0.68;0.68;;;12.00;99.90;;;;;;5033277;28;20492;-75
2022/03/16 04:55:28;;;;;;;1.20;1.02;;;12.00;99.90;;;;;;5033770;28;20075;-75
2022/03/16 04:57:53;;;;;;;7.40;2.53;;;11.90;99.90;;;;;;5037541;28;20432;-74
2022/03/16 05:00:19;;;;;;;0.10;0.10;;;11.90;99.90;;;;;;5038822;28;20030;-75
2022/03/16 05:02:45;;;;;;;8.20;0.45;;;11.90;99.90;;;;;;5056401;28;20094;-75
2022/03/16 05:05:10;;;;;;;0.50;0.50;;;11.90;99.90;;;;;;5057207;28;20028;-74
2022/03/16 05:07:39;;;;;;;1.45;1.13;;;11.90;99.90;;;;;;5057048;28;20094;-75
2022/03/16 05:10:07;;;;;;;1.20;0.28;;;11.90;99.90;;;;;;5057051;28;20096;-74
2022/03/16 05:12:39;;;;;;;2.10;1.90;;;11.90;99.90;;;;;;5056618;28;20028;-74
2022/03/16 05:15:07;;;;;;;31.42;3.97;;;11.90;99.90;;;;;;5056921;28;20025;-74
2022/03/16 05:17:33;;;;;;;1.15;0.70;;;11.90;99.90;;;;;;5056419;28;20029;-74
2022/03/16 05:19:59;;;;;;;0.13;0.13;;;11.90;99.90;;;;;;5056420;28;20021;-75
2022/03/16 05:22:24;;;;;;;0.10;0.10;;;11.90;99.90;;;;;;5057796;28;20036;-74
2022/03/16 05:24:50;;;;;;;2.55;1.50;;;11.90;99.90;;;;;;5056420;28;20029;-74
2022/03/16 05:27:19;;;;;;;0.65;0.63;;;11.90;99.90;;;;;;5056574;28;20456;-74
2022/03/16 05:29:45;;;;;;;1.17;0.68;;;11.90;99.90;;;;;;5055566;28;20100;-74
2022/03/16 05:32:10;;;;;;;0.10;0.10;;;11.90;99.90;;;;;;5056242;28;20480;-74
2022/03/16 05:34:36;;;;;;;0.20;0.20;;;11.90;99.90;;;;;;5056647;28;20033;-75
2022/03/16 05:37:02;;;;;;;1.35;1.25;;;11.90;99.90;;;;;;5055984;28;20452;-75
2022/03/16 05:39:28;;;;;;;0.80;0.52;;;11.90;99.90;;;;;;5055856;28;20031;-74
2022/03/16 05:41:53;;;;;;;0.10;0.10;;;11.90;99.90;;;;;;5056347;28;20488;-75
2022/03/16 05:44:19;;;;;;;0.10;0.10;;;11.90;99.90;;;;;;5056224;28;20427;-76
2022/03/16 05:46:45;;;;;;;0.10;0.10;;;11.80;99.90;;;;;;5056931;28;20078;-75
2022/03/16 05:49:10;;;;;;;0.43;0.40;;;11.90;99.90;;;;;;5056131;28;20017;-75
2022/03/16 05:51:36;;;;;;;0.00;0.00;;;11.90;99.90;;;;;;5040774;28;20427;-74
2022/03/16 05:54:02;;;;;;;0.68;0.68;;;11.90;99.90;;;;;;5035540;28;20087;-74
2022/03/16 05:56:27;;;;;;;0.50;0.40;;;11.80;99.90;;;;;;5035879;28;20503;-74
2022/03/16 05:58:53;;;;;;;1.55;0.50;;;11.80;99.90;;;;;;5036386;28;20028;-75
2022/03/16 06:01:19;;;;;;;0.00;0.00;;;11.80;99.90;;;;;;5044488;28;20025;-74
2022/03/16 06:03:44;;;;;;;0.13;0.13;;;11.80;99.90;;;;;;5054954;28;20479;-74
2022/03/16 06:06:10;;;;;;;0.70;0.50;;;11.80;99.90;;;;;;5055733;28;20401;-75
2022/03/16 06:08:35;;;;;;;0.10;0.10;;;11.80;99.90;;;;;;5055477;28;20025;-75
2022/03/16 06:11:01;;;;;;;0.40;0.40;;;11.80;99.90;;;;;;5055914;28;20021;-74
2022/03/16 06:13:27;;;;;;;0.10;0.10;;;11.80;99.90;;;;;;5055404;28;20024;-74
2022/03/16 06:15:53;;;;;;;0.00;0.00;;;11.80;99.90;;;;;;5055871;28;20021;-74
2022/03/16 06:18:19;;;;;;;0.32;0.32;;;11.80;99.90;;;;;;5055014;28;20095;-75
2022/03/16 06:20:44;;;;;;;0.10;0.10;;;11.80;99.90;;;;;;5055402;28;20094;-75
2022/03/16 06:23:10;;;;;;;0.10;0.10;;;11.80;99.90;;;;;;5056156;28;20025;-75
2022/03/16 06:25:36;;;;;;;1.75;1.65;;;11.80;99.90;;;;;;5055348;28;20081;-74
2022/03/16 06:28:02;;;;;;;7.07;0.30;;;11.80;99.90;;;;;;5054290;28;20056;-75
2022/03/16 06:30:28;;;;;;;0.10;0.10;;;11.90;99.90;;;;;;5053965;28;20029;-75
2022/03/16 06:32:54;;;;;;;0.10;0.10;;;11.90;99.90;;;;;;5053245;28;20074;-74
2022/03/16 06:35:19;;;;;;;0.25;0.25;;;11.90;99.90;;;;;;5051526;28;20025;-74
2022/03/16 06:37:46;;;;;;;3.30;0.75;;;11.90;99.90;;;;;;5045628;28;20053;-74
2022/03/16 06:40:12;;;;;;;0.22;0.22;;;11.90;99.90;;;;;;5054502;28;20353;-75
2022/03/16 06:43:04;;;;;;;0.47;0.20;;;11.90;99.90;;;;;;5054729;28;20119;-73
2022/03/16 06:45:30;;;;;;;0.10;0.10;;;11.90;99.90;;;;;;5049238;28;20045;-77
2022/03/16 06:48:01;;;;;;;0.20;0.20;;;12.00;99.90;;;;;;5049270;28;20021;-74
2022/03/16 06:50:28;;;;;;;0.70;0.70;;;11.90;99.90;;;;;;5047815;28;20029;-74
2022/03/16 06:52:55;;;;;;;0.20;0.20;;;11.90;99.90;;;;;;5034560;28;20392;-74
2022/03/16 06:55:21;;;;;;;0.47;0.47;;;12.00;99.90;;;;;;5033830;28;20068;-75
2022/03/16 06:57:47;;;;;;;5.00;1.27;;;12.00;99.90;;;;;;5034149;28;20098;-74
2022/03/16 07:00:14;;;;;;;19.95;0.73;;;12.00;99.90;;;;;;5036956;28;20028;-75
2022/03/16 07:02:54;;;;;;;0.43;0.30;;;12.00;99.90;;;;;;5052559;28;20024;-74
2022/03/16 07:05:23;;;;;;;0.00;0.00;;;12.00;99.90;;;;;;5052650;28;20033;-74
2022/03/16 07:07:49;;;;;;;0.75;0.75;;;12.00;99.90;;;;;;5051428;28;20551;-75
2022/03/16 07:10:15;;;;;;;0.47;0.30;;;12.00;99.90;;;;;;5051761;28;20100;-75
2022/03/16 07:12:41;;;;;;;0.40;0.35;;;12.00;99.90;;;;;;5051992;28;20090;-74
2022/03/16 07:15:07;;;;;;;4.15;0.75;;;12.00;99.90;;;;;;5053569;28;20056;-75
2022/03/16 07:17:33;;;;;;;6.88;0.77;;;12.10;99.90;;;;;;5051727;28;20017;-75
2022/03/16 07:19:59;;;;;;;13.60;1.50;;;12.10;99.90;;;;;;5053815;28;20151;-74
2022/03/16 07:22:24;;;;;;;0.43;0.43;;;12.10;99.90;;;;;;5059628;28;20025;-75
2022/03/16 07:24:50;;;;;;;0.30;0.30;;;12.10;99.90;;;;;;5055398;28;20091;-75
2022/03/16 07:27:16;;;;;;;0.32;0.32;;;12.20;99.90;;;;;;5042739;28;20087;-75
2022/03/16 07:29:41;;;;;;;0.55;0.55;;;12.20;99.90;;;;;;5045543;28;20018;-74
2022/03/16 07:32:07;;;;;;;0.20;0.20;;;12.20;99.90;;;;;;5052186;28;20021;-75
2022/03/16 07:34:33;;;;;;;2.40;0.73;;;12.30;99.90;;;;;;5040380;28;20041;-76
2022/03/16 07:36:58;;;;;;;1.90;1.13;;;12.30;99.90;;;;;;5038797;28;20025;-74
2022/03/16 07:39:24;;;;;;;0.30;0.30;;;12.30;99.90;;;;;;5053051;28;20032;-74
2022/03/16 07:41:50;;;;;;;0.30;0.30;;;12.40;99.90;;;;;;5053302;28;20412;-74
2022/03/16 07:44:16;;;;;;;0.43;0.25;;;12.40;99.90;;;;;;5053222;28;20095;-74
2022/03/16 07:46:41;;;;;;;0.43;0.30;;;12.40;99.90;;;;;;5046411;28;20069;-75
2022/03/16 07:49:07;;;;;;;0.17;0.17;;;12.50;99.90;;;;;;5051053;28;20480;-76
2022/03/16 07:51:33;;;;;;;0.85;0.30;;;12.50;99.90;;;;;;5048749;28;20045;-76
2022/03/16 07:53:59;;;;;;;0.25;0.25;;;12.60;99.90;;;;;;5052383;28;20033;-75
2022/03/16 07:56:24;;;;;;;0.55;0.55;;;12.60;99.90;;;;;;5050652;28;20032;-74
2022/03/16 07:58:54;;;;;;;0.38;0.38;;;12.70;99.90;;;;;;5048534;28;20028;-74
2022/03/16 08:01:20;;;;;;;4.53;2.10;;;12.70;99.90;;;;;;5050368;28;20037;-76
2022/03/16 08:03:46;;;;;;;0.50;0.50;;;12.70;99.90;;;;;;5068807;28;20088;-75
2022/03/16 08:06:12;;;;;;;2.35;1.23;;;12.80;99.90;;;;;;5072265;28;20017;-74
2022/03/16 08:08:39;;;;;;;0.20;0.20;;;12.80;99.90;;;;;;5069344;28;20027;-75
2022/03/16 08:11:06;;;;;;;5.50;1.63;;;12.80;99.90;;;;;;5049910;28;20021;-73
2022/03/16 08:13:32;;;;;;;0.95;0.95;;;12.90;99.90;;;;;;5051599;28;20035;-74
2022/03/16 08:15:58;;;;;;;2.15;0.93;;;12.80;99.90;;;;;;5052611;28;20096;-74
2022/03/16 08:18:24;;;;;;;0.30;0.25;;;12.80;99.90;;;;;;5048260;28;20108;-74
2022/03/16 08:20:49;;;;;;;0.10;0.10;;;12.90;99.90;;;;;;5051497;28;20017;-74
2022/03/16 08:23:15;;;;;;;0.73;0.73;;;12.80;99.90;;;;;;5052245;28;20090;-74
2022/03/16 08:25:41;;;;;;;0.75;0.55;;;12.90;99.90;;;;;;5052241;28;20020;-74
2022/03/16 08:28:06;;;;;;;0.80;0.38;;;12.90;99.90;;;;;;5051352;28;20118;-75
2022/03/16 08:30:34;;;;;;;3.88;2.30;;;13.00;99.90;;;;;;5052032;28;20373;-74
2022/03/16 08:33:00;;;;;;;10.02;2.90;;;13.10;99.90;;;;;;5047899;28;20504;-74
2022/03/16 08:35:26;;;;;;;3.10;0.40;;;13.20;99.90;;;;;;5044299;28;20396;-74
2022/03/16 08:37:52;;;;;;;0.40;0.40;;;13.20;99.90;;;;;;5051922;28;20017;-74
2022/03/16 08:40:18;;;;;;;0.10;0.10;;;13.30;99.90;;;;;;5051292;28;20025;-75
2022/03/16 08:42:45;;;;;;;17.00;1.75;;;13.30;99.90;;;;;;5051102;28;20045;-75
2022/03/16 08:45:10;;;;;;;0.77;0.30;;;13.30;99.90;;;;;;5050788;28;20044;-74
2022/03/16 08:47:37;;;;;;;2.25;0.77;;;13.30;99.90;;;;;;5050942;28;20403;-76
2022/03/16 08:50:03;;;;;;;0.73;0.73;;;13.30;99.90;;;;;;5051157;28;20071;-74
2022/03/16 08:52:29;;;;;;;2.20;0.82;;;13.40;99.90;;;;;;5045658;28;20485;-76
2022/03/16 08:54:55;;;;;;;0.85;0.85;;;13.40;99.90;;;;;;5047899;28;20047;-75
2022/03/16 08:57:22;;;;;;;0.35;0.25;;;13.40;99.90;;;;;;5052083;28;20033;-75
2022/03/16 08:59:49;;;;;;;4.90;2.00;;;13.50;99.90;;;;;;5052000;28;20024;-75
2022/03/16 09:02:15;;;;;;;0.00;0.00;;;13.50;99.90;;;;;;5051004;28;20033;-74
2022/03/16 09:04:40;;;;;;;13.25;0.63;;;13.50;99.90;;;;;;5049897;28;20074;-75
2022/03/16 09:07:06;;;;;;;0.20;0.20;;;13.60;99.90;;;;;;5049611;28;20029;-74
2022/03/16 09:09:33;;;;;;;2.97;1.30;;;13.60;99.90;;;;;;5044837;28;20460;-75
2022/03/16 09:11:59;;;;;;;0.47;0.47;;;13.60;99.90;;;;;;5047481;28;20143;-74
2022/03/16 09:14:24;;;;;;;5.30;0.43;;;13.60;99.90;;;;;;5039925;28;20040;-75
2022/03/16 09:16:51;;;;;;;3.80;0.80;;;13.70;99.90;;;;;;5042148;28;20048;-75
2022/03/16 09:19:20;;;;;;;0.10;0.10;;;13.70;99.90;;;;;;5047643;28;20411;-75
2022/03/16 09:21:49;;;;;;;0.28;0.28;;;13.70;99.90;;;;;;5041200;28;20030;-75
2022/03/16 09:24:16;;;;;;;0.55;0.25;;;13.70;99.90;;;;;;5047894;28;20037;-76
2022/03/16 09:26:42;;;;;;;1.45;1.10;;;13.70;99.90;;;;;;5046594;28;20025;-74
2022/03/16 09:29:09;;;;;;;1.08;0.68;;;13.70;99.90;;;;;;5044636;28;20021;-74
2022/03/16 09:31:38;;;;;;;0.80;0.75;;;13.70;99.90;;;;;;5050747;28;20044;-76
2022/03/16 09:34:05;;;;;;;4.95;1.38;;;13.80;99.90;;;;;;5040821;28;20021;-77
2022/03/16 09:36:32;;;;;;;0.10;0.10;;;13.80;99.90;;;;;;5034762;28;20040;-74
2022/03/16 09:38:58;;;;;;;2.08;1.23;;;13.90;99.90;;;;;;5050778;28;20024;-75
2022/03/16 09:41:26;;;;;;;0.95;0.88;;;13.80;99.90;;;;;;5043044;28;20017;-75
2022/03/16 09:43:53;;;;;;;0.20;0.20;;;13.90;99.90;;;;;;5057422;28;20096;-74
2022/03/16 09:46:22;;;;;;;0.80;0.80;;;13.90;99.90;;;;;;5071861;28;20041;-74
2022/03/16 09:48:48;;;;;;;0.60;0.57;;;13.90;99.90;;;;;;5052261;28;20028;-74
2022/03/16 09:51:16;;;;;;;0.55;0.55;;;14.00;99.90;;;;;;5048104;28;20387;-74
2022/03/16 09:53:42;;;;;;;0.20;0.20;;;14.00;99.90;;;;;;5036808;28;20515;-74
2022/03/16 09:56:09;;;;;;;1.80;1.65;;;14.00;99.90;;;;;;5036707;28;20057;-75
2022/03/16 09:58:35;;;;;;;0.15;0.15;;;14.00;99.90;;;;;;5034760;28;20061;-76
2022/03/16 10:01:05;;;;;;;0.20;0.20;;;14.00;99.90;;;;;;5041739;28;20024;-75
2022/03/16 10:03:31;;;;;;;0.20;0.20;;;14.00;99.90;;;;;;5052219;28;20167;-74
2022/03/16 10:05:58;;;;;;;0.65;0.60;;;14.10;99.90;;;;;;5054175;28;20017;-74
2022/03/16 10:08:32;;;;;;;0.70;0.28;;;14.10;99.90;;;;;;5054210;28;20112;-74
2022/03/16 10:13:48;;;;;;;0.60;0.60;;;14.10;99.90;;;;;;5058421;28;20148;-74
2022/03/16 10:16:14;;;;;;;1.20;0.85;;;14.10;99.90;;;;;;5052468;28;20509;-74
2022/03/16 10:18:40;;;;;;;0.30;0.30;;;14.10;99.90;;;;;;5052842;28;20021;-74
2022/03/16 10:21:05;;;;;;;0.20;0.20;;;14.20;99.90;;;;;;5053208;28;20032;-75
2022/03/16 10:23:31;;;;;;;0.35;0.35;;;14.20;99.90;;;;;;5054223;28;20021;-74
2022/03/16 10:26:01;;;;;;;1.35;0.85;;;14.30;99.90;;;;;;5053648;28;20036;-75
2022/03/16 10:28:29;;;;;;;0.35;0.22;;;14.30;99.90;;;;;;5052199;28;20500;-76
2022/03/16 10:31:08;;;;;;;0.10;0.10;;;14.40;99.90;;;;;;5052428;28;20100;-76
2022/03/16 10:33:46;;;;;;;11.15;2.45;;;14.50;99.90;;;;;;5047164;28;20084;-76
2022/03/16 10:36:16;;;;;;;0.10;0.10;;;14.60;99.90;;;;;;5034235;28;20030;-76
2022/03/16 10:38:46;;;;;;;0.20;0.20;;;14.60;99.90;;;;;;5053535;28;20025;-75
2022/03/16 10:46:55;;;;;;;0.35;0.35;;;14.70;99.90;;;;;;5042977;28;20086;-74
2022/03/16 10:49:26;;;;;;;1.95;1.10;;;14.80;99.90;;;;;;5052369;28;20041;-76
2022/03/16 10:52:00;;;;;;;0.85;0.68;;;14.80;99.90;;;;;;5053153;28;20075;-75
2022/03/16 10:54:26;;;;;;;1.20;1.10;;;14.90;99.90;;;;;;5052978;28;20032;-74
2022/03/16 10:56:54;;;;;;;0.20;0.20;;;14.90;99.90;;;;;;5049193;28;20090;-75
2022/03/16 10:59:24;;;;;;;2.33;0.95;;;15.00;99.90;;;;;;5053113;28;20044;-74
2022/03/16 11:01:50;;;;;;;0.05;0.05;;;15.10;99.90;;;;;;5044391;28;20357;-75
2022/03/16 11:04:18;;;;;;;0.10;0.10;;;15.10;99.90;;;;;;5049717;28;20071;-75
2022/03/16 11:06:44;;;;;;;0.28;0.28;;;15.20;99.90;;;;;;5064748;28;20016;-74
2022/03/16 11:09:10;;;;;;;6.15;2.40;;;15.20;99.90;;;;;;5056694;28;20787;-74
2022/03/16 11:14:22;;;;;;;2.15;1.45;;;15.30;99.90;;;;;;5044743;28;20083;-74
2022/03/16 11:16:49;;;;;;;1.15;1.05;;;15.30;99.90;;;;;;5037526;28;21504;-74
2022/03/16 11:19:17;;;;;;;0.40;0.40;;;15.40;99.90;;;;;;5043298;28;20021;-74
2022/03/16 11:22:02;;;;;;;1.92;0.93;;;15.40;99.90;;;;;;5048531;28;20025;-74
2022/03/16 11:24:33;;;;;;;1.85;0.63;;;15.40;99.90;;;;;;5042927;28;20439;-74
2022/03/16 11:27:14;;;;;;;6.85;1.40;;;15.40;99.90;;;;;;5035966;28;20025;-75
2022/03/16 11:30:17;;;;;;;0.88;0.88;;;15.40;99.90;;;;;;5038704;28;20207;-73
2022/03/16 11:32:46;;;;;;;1.20;0.55;;;15.30;99.90;;;;;;5050812;28;20032;-74
2022/03/16 11:35:18;;;;;;;0.98;0.75;;;15.30;99.90;;;;;;5031346;28;20028;-74
2022/03/16 11:37:51;;;;;;;11.47;2.27;;;15.30;99.90;;;;;;5046577;28;20373;-74
2022/03/16 11:40:20;;;;;;;6.85;0.43;;;15.30;99.90;;;;;;5038914;28;20056;-73
2022/03/16 11:43:04;;;;;;;2.38;1.52;;;15.40;99.90;;;;;;5045595;28;20036;-75
2022/03/16 11:45:38;;;;;;;12.60;2.95;;;15.30;99.90;;;;;;5040065;28;20128;-75
2022/03/16 11:48:33;;;;;;;0.65;0.65;;;15.30;99.90;;;;;;5051434;28;20625;-74
2022/03/16 11:51:09;;;;;;;0.55;0.20;;;15.20;99.90;;;;;;5037640;28;20797;-74
2022/03/16 11:53:47;;;;;;;0.38;0.38;;;15.20;99.90;;;;;;5044905;28;20106;-74
2022/03/16 11:56:29;;;;;;;4.07;0.93;;;15.30;99.90;;;;;;5037752;28;20036;-74
2022/03/16 11:59:10;;;;;;;0.13;0.13;;;15.30;99.90;;;;;;5039127;28;20480;-74
2022/03/16 12:01:39;;;;;;;0.13;0.13;;;15.30;99.90;;;;;;5046609;28;20025;-74
2022/03/16 12:04:12;;;;;;;2.28;0.63;;;15.30;99.90;;;;;;5045368;28;20017;-74
2022/03/16 12:07:10;;;;;;;2.10;1.40;;;15.30;99.90;;;;;;5039140;28;20971;-73
2022/03/16 12:09:51;;;;;;;0.55;0.55;;;15.30;99.90;;;;;;5043650;28;20107;-73
2022/03/16 12:15:15;;;;;;;1.20;1.10;;;15.40;99.90;;;;;;5040476;28;20483;-74
2022/03/16 12:17:56;;;;;;;7.53;1.17;;;15.40;99.90;;;;;;5045819;28;20107;-74
2022/03/16 12:20:31;;;;;;;0.25;0.25;;;15.50;99.90;;;;;;5032210;28;20021;-74
2022/03/16 12:23:09;;;;;;;0.98;0.93;;;15.50;99.90;;;;;;5046554;28;20028;-73
2022/03/16 12:25:42;;;;;;;0.08;0.08;;;15.50;99.90;;;;;;5050466;28;20060;-74
2022/03/16 12:31:09;;;;;;;1.35;0.40;;;15.50;99.90;;;;;;5047979;28;20051;-74
2022/03/16 12:33:42;;;;;;;2.20;1.65;;;15.50;99.90;;;;;;5051816;28;20452;-75
2022/03/16 12:36:16;;;;;;;6.53;2.33;;;15.60;99.90;;;;;;5048630;28;20029;-74
2022/03/16 12:38:49;;;;;;;1.58;0.98;;;15.50;99.90;;;;;;5050083;28;20521;-73
2022/03/16 12:44:03;;;;;;;0.55;0.55;;;15.30;99.90;;;;;;5046327;28;20016;-73
2022/03/16 12:46:33;;;;;;;0.68;0.57;;;15.20;99.90;;;;;;5037925;28;20065;-72
2022/03/16 12:49:06;;;;;;;1.27;0.70;;;15.20;99.90;;;;;;5051400;28;20091;-73
2022/03/16 12:51:43;;;;;;;0.20;0.20;;;15.20;99.90;;;;;;5051742;28;20017;-74
2022/03/16 12:54:10;;;;;;;2.72;1.40;;;15.30;99.90;;;;;;5049942;28;20039;-74
2022/03/16 12:56:44;;;;;;;1.08;0.30;;;15.20;99.90;;;;;;5046752;28;20028;-74
2022/03/16 12:59:11;;;;;;;1.38;0.65;;;15.30;99.90;;;;;;5049180;28;20029;-73
2022/03/16 13:01:37;;;;;;;0.10;0.10;;;15.30;99.90;;;;;;5050348;28;20049;-73
2022/03/16 13:04:07;;;;;;;4.68;1.58;;;15.20;99.90;;;;;;5051257;28;20021;-73
2022/03/16 13:06:34;;;;;;;2.53;1.73;;;15.30;99.90;;;;;;5051172;28;20017;-73